createdAt,value
2017-05-23T00:00:01.802Z,1016.67
2017-05-23T00:00:42.250Z,1016.66
2017-05-23T00:01:22.781Z,1016.66
2017-05-23T00:02:03.245Z,1016.65
2017-05-23T00:02:43.726Z,1016.69
2017-05-23T00:03:24.235Z,1016.68
2017-05-23T00:04:04.708Z,1016.67
2017-05-23T00:04:45.226Z,1016.67
2017-05-23T00:05:25.705Z,1016.67
2017-05-23T00:06:06.148Z,1016.63
2017-05-23T00:06:46.599Z,1016.64
2017-05-23T00:07:27.069Z,1016.68
2017-05-23T00:08:07.593Z,1016.65
2017-05-23T00:08:48.104Z,1016.65
2017-05-23T00:09:28.600Z,1016.66
2017-05-23T00:10:09.050Z,1016.64
2017-05-23T00:10:49.530Z,1016.65
2017-05-23T00:11:30.052Z,1016.64
2017-05-23T00:12:10.542Z,1016.62
2017-05-23T00:12:51.021Z,1016.59
2017-05-23T00:13:31.507Z,1016.6
2017-05-23T00:14:11.990Z,1016.58
2017-05-23T00:14:52.507Z,1016.54
2017-05-23T00:15:32.947Z,1016.59
2017-05-23T00:16:13.438Z,1016.52
2017-05-23T00:16:53.893Z,1016.53
2017-05-23T00:17:34.334Z,1016.54
2017-05-23T00:18:14.870Z,1016.5
2017-05-23T00:18:55.333Z,1016.53
2017-05-23T00:19:35.832Z,1016.49
2017-05-23T00:20:16.377Z,1016.51
2017-05-23T00:20:56.817Z,1016.52
2017-05-23T00:21:37.297Z,1016.51
2017-05-23T00:22:17.771Z,1016.5
2017-05-23T00:22:58.255Z,1016.51
2017-05-23T00:23:38.736Z,1016.5
2017-05-23T00:24:19.233Z,1016.47
2017-05-23T00:24:59.742Z,1016.51
2017-05-23T00:25:40.182Z,1016.5
2017-05-23T00:26:20.676Z,1016.48
2017-05-23T00:27:01.171Z,1016.47
2017-05-23T00:27:41.670Z,1016.52
2017-05-23T00:28:22.159Z,1016.53
2017-05-23T00:29:02.630Z,1016.51
2017-05-23T00:29:43.083Z,1016.51
2017-05-23T00:30:23.594Z,1016.48
2017-05-23T00:31:04.061Z,1016.48
2017-05-23T00:31:44.588Z,1016.45
2017-05-23T00:32:25.080Z,1016.46
2017-05-23T00:33:05.566Z,1016.46
2017-05-23T00:33:46.042Z,1016.49
2017-05-23T00:34:26.583Z,1016.49
2017-05-23T00:35:07.013Z,1016.46
2017-05-23T00:35:47.492Z,1016.44
2017-05-23T00:36:27.990Z,1016.44
2017-05-23T00:37:08.517Z,1016.48
2017-05-23T00:37:48.966Z,1016.41
2017-05-23T00:38:29.432Z,1016.49
2017-05-23T00:39:09.947Z,1016.48
2017-05-23T00:39:50.424Z,1016.48
2017-05-23T00:40:30.893Z,1016.46
2017-05-23T00:41:11.407Z,1016.44
2017-05-23T00:41:51.910Z,1016.43
2017-05-23T00:42:32.397Z,1016.46
2017-05-23T00:43:12.901Z,1016.41
2017-05-23T00:43:53.340Z,1016.42
2017-05-23T00:44:33.885Z,1016.42
2017-05-23T00:45:14.345Z,1016.41
2017-05-23T00:45:54.837Z,1016.4
2017-05-23T00:46:35.294Z,1016.35
2017-05-23T00:47:15.768Z,1016.39
2017-05-23T00:47:56.288Z,1016.33
2017-05-23T00:48:36.750Z,1016.39
2017-05-23T00:49:17.211Z,1016.39
2017-05-23T00:49:57.699Z,1016.36
2017-05-23T00:50:38.200Z,1016.35
2017-05-23T00:51:18.703Z,1016.33
2017-05-23T00:51:59.134Z,1016.33
2017-05-23T00:52:39.632Z,1016.32
2017-05-23T00:53:20.119Z,1016.33
2017-05-23T00:54:00.649Z,1016.33
2017-05-23T00:54:41.105Z,1016.31
2017-05-23T00:55:21.647Z,1016.32
2017-05-23T00:56:02.087Z,1016.31
2017-05-23T00:56:42.583Z,1016.27
2017-05-23T00:57:23.046Z,1016.27
2017-05-23T00:58:03.578Z,1016.27
2017-05-23T00:58:44.040Z,1016.28
2017-05-23T00:59:24.536Z,1016.28
2017-05-23T01:00:05.086Z,1016.21
2017-05-23T01:00:45.572Z,1016.21
2017-05-23T01:01:26.081Z,1016.22
2017-05-23T01:02:06.542Z,1016.18
2017-05-23T01:02:47.076Z,1016.15
2017-05-23T01:03:27.526Z,1016.2
2017-05-23T01:04:08.012Z,1016.19
2017-05-23T01:04:48.503Z,1016.19
2017-05-23T01:05:28.977Z,1016.18
2017-05-23T01:06:09.571Z,1016.16
2017-05-23T01:06:50.048Z,1016.2
2017-05-23T01:07:30.554Z,1016.2
2017-05-23T01:08:11.004Z,1016.16
2017-05-23T01:08:51.542Z,1016.21
2017-05-23T01:09:31.991Z,1016.2
2017-05-23T01:10:12.483Z,1016.18
2017-05-23T01:10:52.949Z,1016.15
2017-05-23T01:11:33.473Z,1016.14
2017-05-23T01:12:14.002Z,1016.14
2017-05-23T01:12:54.495Z,1016.13
2017-05-23T01:13:34.967Z,1016.15
2017-05-23T01:14:15.528Z,1016.15
2017-05-23T01:14:56.043Z,1016.1
2017-05-23T01:15:36.537Z,1016.09
2017-05-23T01:16:17.004Z,1016.1
2017-05-23T01:16:57.496Z,1016.09
2017-05-23T01:17:37.985Z,1016.04
2017-05-23T01:18:18.446Z,1016.07
2017-05-23T01:18:58.971Z,1016.02
2017-05-23T01:19:39.470Z,1016.01
2017-05-23T01:20:19.953Z,1015.99
2017-05-23T01:21:00.410Z,1015.98
2017-05-23T01:21:40.919Z,1015.97
2017-05-23T01:22:21.391Z,1015.9
2017-05-23T01:23:01.897Z,1015.92
2017-05-23T01:23:42.346Z,1015.95
2017-05-23T01:24:22.830Z,1015.92
2017-05-23T01:25:03.299Z,1015.85
2017-05-23T01:25:43.811Z,1015.83
2017-05-23T01:26:24.288Z,1015.77
2017-05-23T01:27:04.804Z,1015.74
2017-05-23T01:27:45.342Z,1015.71
2017-05-23T01:28:25.833Z,1015.69
2017-05-23T01:29:06.302Z,1015.73
2017-05-23T01:29:46.817Z,1015.72
2017-05-23T01:30:27.256Z,1015.73
2017-05-23T01:31:07.757Z,1015.74
2017-05-23T01:31:48.254Z,1015.72
2017-05-23T01:32:28.756Z,1015.71
2017-05-23T01:33:09.252Z,1015.74
2017-05-23T01:33:49.739Z,1015.68
2017-05-23T01:34:30.239Z,1015.64
2017-05-23T01:35:10.697Z,1015.64
2017-05-23T01:35:51.184Z,1015.62
2017-05-23T01:36:31.658Z,1015.59
2017-05-23T01:37:12.166Z,1015.58
2017-05-23T01:37:52.660Z,1015.58
2017-05-23T01:38:33.125Z,1015.57
2017-05-23T01:39:13.583Z,1015.59
2017-05-23T01:39:54.091Z,1015.52
2017-05-23T01:40:34.555Z,1015.55
2017-05-23T01:41:15.097Z,1015.53
2017-05-23T01:41:55.544Z,1015.53
2017-05-23T01:42:36.020Z,1015.55
2017-05-23T01:43:16.507Z,1015.53
2017-05-23T01:43:57.014Z,1015.51
2017-05-23T01:44:37.496Z,1015.49
2017-05-23T01:45:17.968Z,1015.52
2017-05-23T01:45:58.493Z,1015.5
2017-05-23T01:46:38.926Z,1015.49
2017-05-23T01:47:19.409Z,1015.48
2017-05-23T01:47:59.922Z,1015.51
2017-05-23T01:48:40.423Z,1015.51
2017-05-23T01:49:20.868Z,1015.5
2017-05-23T01:50:01.340Z,1015.48
2017-05-23T01:50:41.857Z,1015.5
2017-05-23T01:51:22.369Z,1015.5
2017-05-23T01:52:02.847Z,1015.53
2017-05-23T01:52:43.306Z,1015.5
2017-05-23T01:53:23.891Z,1015.5
2017-05-23T01:54:04.360Z,1015.49
2017-05-23T01:54:44.836Z,1015.54
2017-05-23T01:55:25.341Z,1015.57
2017-05-23T01:56:05.847Z,1015.54
2017-05-23T01:56:46.314Z,1015.56
2017-05-23T01:57:26.832Z,1015.62
2017-05-23T01:58:07.345Z,1015.6
2017-05-23T01:58:47.751Z,1015.58
2017-05-23T01:59:28.262Z,1015.59
2017-05-23T02:00:08.707Z,1015.61
2017-05-23T02:00:49.175Z,1015.63
2017-05-23T02:01:29.678Z,1015.64
2017-05-23T02:02:10.128Z,1015.65
2017-05-23T02:02:50.590Z,1015.65
2017-05-23T02:03:31.130Z,1015.62
2017-05-23T02:04:11.571Z,1015.66
2017-05-23T02:04:52.086Z,1015.64
2017-05-23T02:05:32.533Z,1015.69
2017-05-23T02:06:13.010Z,1015.67
2017-05-23T02:06:53.605Z,1015.66
2017-05-23T02:07:34.005Z,1015.65
2017-05-23T02:08:14.487Z,1015.63
2017-05-23T02:08:55.016Z,1015.66
2017-05-23T02:09:35.463Z,1015.65
2017-05-23T02:10:15.958Z,1015.67
2017-05-23T02:10:56.414Z,1015.64
2017-05-23T02:11:36.908Z,1015.63
2017-05-23T02:12:17.369Z,1015.63
2017-05-23T02:12:57.834Z,1015.68
2017-05-23T02:13:38.333Z,1015.6
2017-05-23T02:14:18.830Z,1015.6
2017-05-23T02:14:59.297Z,1015.61
2017-05-23T02:15:39.769Z,1015.66
2017-05-23T02:16:20.236Z,1015.65
2017-05-23T02:17:00.702Z,1015.63
2017-05-23T02:17:41.188Z,1015.67
2017-05-23T02:18:21.706Z,1015.65
2017-05-23T02:19:02.226Z,1015.65
2017-05-23T02:19:42.703Z,1015.68
2017-05-23T02:20:23.156Z,1015.67
2017-05-23T02:21:03.667Z,1015.66
2017-05-23T02:21:44.118Z,1015.63
2017-05-23T02:22:24.621Z,1015.61
2017-05-23T02:23:05.052Z,1015.64
2017-05-23T02:23:45.572Z,1015.63
2017-05-23T02:24:26.026Z,1015.61
2017-05-23T02:25:06.506Z,1015.6
2017-05-23T02:25:47.010Z,1015.62
2017-05-23T02:26:27.478Z,1015.61
2017-05-23T02:27:08.016Z,1015.64
2017-05-23T02:27:48.495Z,1015.62
2017-05-23T02:28:29.029Z,1015.64
2017-05-23T02:31:00.031Z,1015.62
2017-05-23T02:31:50.393Z,1015.6
2017-05-23T02:32:37.860Z,1015.65
2017-05-23T02:33:18.937Z,1015.67
2017-05-23T02:33:59.389Z,1015.65
2017-05-23T02:34:39.895Z,1015.7
2017-05-23T02:35:20.388Z,1015.75
2017-05-23T02:36:00.871Z,1015.71
2017-05-23T02:36:41.359Z,1015.65
2017-05-23T02:37:21.816Z,1015.69
2017-05-23T02:38:02.371Z,1015.66
2017-05-23T02:38:42.836Z,1015.67
2017-05-23T02:39:23.329Z,1015.61
2017-05-23T02:40:03.825Z,1015.64
2017-05-23T02:40:44.338Z,1015.65
2017-05-23T02:41:24.829Z,1015.6
2017-05-23T02:42:05.339Z,1015.63
2017-05-23T02:42:45.854Z,1015.6
2017-05-23T02:43:26.328Z,1015.57
2017-05-23T02:44:06.849Z,1015.59
2017-05-23T02:44:47.301Z,1015.54
2017-05-23T02:45:27.792Z,1015.54
2017-05-23T02:46:08.294Z,1015.58
2017-05-23T02:46:48.844Z,1015.56
2017-05-23T02:47:29.351Z,1015.54
2017-05-23T02:48:09.863Z,1015.56
2017-05-23T02:48:50.361Z,1015.49
2017-05-23T02:49:30.864Z,1015.53
2017-05-23T02:50:11.310Z,1015.54
2017-05-23T02:50:51.837Z,1015.52
2017-05-23T02:51:32.323Z,1015.46
2017-05-23T02:52:12.792Z,1015.47
2017-05-23T02:52:53.267Z,1015.45
2017-05-23T02:53:33.769Z,1015.47
2017-05-23T02:54:14.283Z,1015.44
2017-05-23T02:54:54.769Z,1015.37
2017-05-23T02:55:35.280Z,1015.42
2017-05-23T02:56:15.762Z,1015.37
2017-05-23T02:56:56.234Z,1015.37
2017-05-23T02:57:36.730Z,1015.33
2017-05-23T02:58:17.252Z,1015.42
2017-05-23T02:58:57.720Z,1015.4
2017-05-23T02:59:38.205Z,1015.37
2017-05-23T03:00:18.682Z,1015.36
2017-05-23T03:00:59.182Z,1015.36
2017-05-23T03:01:39.689Z,1015.33
2017-05-23T03:02:20.171Z,1015.34
2017-05-23T03:03:00.650Z,1015.31
2017-05-23T03:03:41.139Z,1015.3
2017-05-23T03:04:21.626Z,1015.26
2017-05-23T03:05:02.095Z,1015.28
2017-05-23T03:05:42.590Z,1015.29
2017-05-23T03:06:23.061Z,1015.31
2017-05-23T03:07:03.568Z,1015.25
2017-05-23T03:07:44.081Z,1015.27
2017-05-23T03:08:24.568Z,1015.29
2017-05-23T03:09:05.091Z,1015.25
2017-05-23T03:09:45.575Z,1015.24
2017-05-23T03:10:26.083Z,1015.24
2017-05-23T03:11:06.553Z,1015.23
2017-05-23T03:11:47.054Z,1015.26
2017-05-23T03:12:27.543Z,1015.2
2017-05-23T03:13:08.011Z,1015.2
2017-05-23T03:13:48.495Z,1015.19
2017-05-23T03:14:28.998Z,1015.22
2017-05-23T03:15:09.487Z,1015.19
2017-05-23T03:15:49.969Z,1015.19
2017-05-23T03:16:30.468Z,1015.2
2017-05-23T03:17:10.968Z,1015.2
2017-05-23T03:17:51.458Z,1015.2
2017-05-23T03:18:31.929Z,1015.17
2017-05-23T03:19:12.437Z,1015.21
2017-05-23T03:19:52.922Z,1015.17
2017-05-23T03:20:33.382Z,1015.17
2017-05-23T03:21:13.907Z,1015.12
2017-05-23T03:21:54.360Z,1015.11
2017-05-23T03:22:34.844Z,1015.1
2017-05-23T03:23:15.282Z,1015.14
2017-05-23T03:23:55.782Z,1015.12
2017-05-23T03:24:36.251Z,1015.11
2017-05-23T03:25:16.736Z,1015.11
2017-05-23T03:25:57.218Z,1015.12
2017-05-23T03:26:37.672Z,1015.09
2017-05-23T03:27:18.152Z,1015.06
2017-05-23T03:27:58.634Z,1015.07
2017-05-23T03:28:39.114Z,1015.07
2017-05-23T03:29:19.628Z,1015.11
2017-05-23T03:30:01.777Z,1015.11
2017-05-23T03:30:42.257Z,1015.09
2017-05-23T03:31:22.743Z,1015.1
2017-05-23T03:32:03.223Z,1015.12
2017-05-23T03:32:43.717Z,1015.07
2017-05-23T03:33:24.187Z,1015.04
2017-05-23T03:34:04.655Z,1015.05
2017-05-23T03:34:45.148Z,1015.06
2017-05-23T03:35:25.627Z,1015.05
2017-05-23T03:36:06.145Z,1015.08
2017-05-23T03:36:46.629Z,1015.11
2017-05-23T03:37:27.122Z,1015.06
2017-05-23T03:38:07.652Z,1015.07
2017-05-23T03:38:48.122Z,1015.07
2017-05-23T03:39:28.620Z,1015.05
2017-05-23T03:40:09.127Z,1015
2017-05-23T03:40:49.581Z,1015.04
2017-05-23T03:41:30.171Z,1014.97
2017-05-23T03:42:10.649Z,1014.98
2017-05-23T03:42:51.122Z,1014.99
2017-05-23T03:43:31.602Z,1014.97
2017-05-23T03:44:12.066Z,1015
2017-05-23T03:44:52.537Z,1014.98
2017-05-23T03:45:33.033Z,1015.01
2017-05-23T03:46:13.526Z,1015.03
2017-05-23T03:46:54.008Z,1015
2017-05-23T03:47:34.509Z,1014.99
2017-05-23T03:48:15.023Z,1014.98
2017-05-23T03:48:55.520Z,1014.94
2017-05-23T03:49:36.019Z,1014.94
2017-05-23T03:50:16.511Z,1014.93
2017-05-23T03:50:56.995Z,1014.91
2017-05-23T03:51:37.509Z,1014.91
2017-05-23T03:52:18.000Z,1014.91
2017-05-23T03:52:58.490Z,1014.88
2017-05-23T03:53:39.103Z,1014.89
2017-05-23T03:54:19.581Z,1014.91
2017-05-23T03:55:00.049Z,1014.9
2017-05-23T03:55:40.559Z,1014.89
2017-05-23T03:56:21.016Z,1014.88
2017-05-23T03:57:01.477Z,1014.91
2017-05-23T03:57:41.957Z,1014.9
2017-05-23T03:58:22.439Z,1014.91
2017-05-23T03:59:02.936Z,1014.87
2017-05-23T03:59:43.432Z,1014.89
2017-05-23T04:00:23.920Z,1014.85
2017-05-23T04:01:04.396Z,1014.86
2017-05-23T04:01:44.872Z,1014.89
2017-05-23T04:02:25.374Z,1014.87
2017-05-23T04:03:05.877Z,1014.91
2017-05-23T04:03:46.353Z,1014.93
2017-05-23T04:04:26.848Z,1014.9
2017-05-23T04:05:07.359Z,1014.96
2017-05-23T04:05:47.827Z,1014.93
2017-05-23T04:06:28.314Z,1014.97
2017-05-23T04:07:08.837Z,1014.97
2017-05-23T04:07:49.324Z,1014.93
2017-05-23T04:08:29.805Z,1014.96
2017-05-23T04:09:10.325Z,1014.96
2017-05-23T04:09:50.781Z,1014.96
2017-05-23T04:10:31.296Z,1014.96
2017-05-23T04:11:11.784Z,1014.96
2017-05-23T04:11:52.254Z,1014.95
2017-05-23T04:12:32.753Z,1015
2017-05-23T04:13:13.256Z,1014.93
2017-05-23T04:13:53.699Z,1014.97
2017-05-23T04:14:34.198Z,1014.96
2017-05-23T04:15:14.902Z,1014.99
2017-05-23T04:15:55.212Z,1014.98
2017-05-23T04:16:35.706Z,1015.02
2017-05-23T04:17:16.209Z,1015
2017-05-23T04:17:56.697Z,1015.03
2017-05-23T04:18:37.154Z,1015.08
2017-05-23T04:19:17.643Z,1015.01
2017-05-23T04:19:58.103Z,1015.03
2017-05-23T04:20:38.610Z,1015.07
2017-05-23T04:21:19.089Z,1015.07
2017-05-23T04:21:59.573Z,1015.07
2017-05-23T04:22:40.067Z,1015.04
2017-05-23T04:23:20.543Z,1015.05
2017-05-23T04:24:01.021Z,1015.07
2017-05-23T04:24:41.556Z,1015.11
2017-05-23T04:25:21.993Z,1015.09
2017-05-23T04:26:02.475Z,1015.08
2017-05-23T04:26:42.960Z,1015.08
2017-05-23T04:27:23.480Z,1015.09
2017-05-23T04:28:03.957Z,1015.06
2017-05-23T04:28:44.466Z,1015.03
2017-05-23T04:29:24.993Z,1015.05
2017-05-23T04:30:05.485Z,1015.01
2017-05-23T04:30:45.955Z,1015
2017-05-23T04:31:26.428Z,1014.99
2017-05-23T04:32:06.895Z,1015.02
2017-05-23T04:32:47.397Z,1015.02
2017-05-23T04:33:27.878Z,1015.04
2017-05-23T04:34:08.367Z,1015
2017-05-23T04:34:48.852Z,1015.03
2017-05-23T04:35:29.332Z,1015
2017-05-23T04:36:09.839Z,1014.98
2017-05-23T04:36:50.328Z,1015.01
2017-05-23T04:37:30.815Z,1015.02
2017-05-23T04:38:11.328Z,1015.04
2017-05-23T04:38:51.809Z,1015.02
2017-05-23T04:39:32.269Z,1015.02
2017-05-23T04:40:12.755Z,1015.03
2017-05-23T04:40:53.266Z,1015.07
2017-05-23T04:41:33.726Z,1015.07
2017-05-23T04:42:14.252Z,1015.07
2017-05-23T04:42:54.767Z,1015.09
2017-05-23T04:43:35.249Z,1015.05
2017-05-23T04:44:15.735Z,1015.06
2017-05-23T04:44:56.229Z,1015.09
2017-05-23T04:45:36.698Z,1015.09
2017-05-23T04:46:17.181Z,1015.11
2017-05-23T04:46:57.640Z,1015.08
2017-05-23T04:47:38.130Z,1015.12
2017-05-23T04:48:18.598Z,1015.12
2017-05-23T04:48:59.068Z,1015.17
2017-05-23T04:49:39.568Z,1015.17
2017-05-23T04:50:20.042Z,1015.2
2017-05-23T04:51:00.558Z,1015.19
2017-05-23T04:51:41.050Z,1015.21
2017-05-23T04:52:21.542Z,1015.21
2017-05-23T04:53:02.023Z,1015.25
2017-05-23T04:53:42.494Z,1015.24
2017-05-23T04:54:23.019Z,1015.21
2017-05-23T04:55:03.517Z,1015.25
2017-05-23T04:55:44.008Z,1015.19
2017-05-23T04:56:24.498Z,1015.24
2017-05-23T04:57:05.008Z,1015.23
2017-05-23T04:57:45.490Z,1015.22
2017-05-23T04:58:25.968Z,1015.21
2017-05-23T04:59:06.459Z,1015.2
2017-05-23T04:59:46.949Z,1015.21
2017-05-23T05:00:27.461Z,1015.2
2017-05-23T05:01:07.945Z,1015.22
2017-05-23T05:01:48.460Z,1015.22
2017-05-23T05:02:28.949Z,1015.27
2017-05-23T05:03:09.438Z,1015.26
2017-05-23T05:03:49.933Z,1015.26
2017-05-23T05:04:30.426Z,1015.24
2017-05-23T05:05:10.945Z,1015.22
2017-05-23T05:05:51.438Z,1015.21
2017-05-23T05:06:31.927Z,1015.2
2017-05-23T05:07:12.461Z,1015.2
2017-05-23T05:07:52.968Z,1015.24
2017-05-23T05:08:33.444Z,1015.25
2017-05-23T05:09:13.921Z,1015.21
2017-05-23T05:09:54.418Z,1015.21
2017-05-23T05:10:34.881Z,1015.24
2017-05-23T05:11:15.372Z,1015.2
2017-05-23T05:11:55.855Z,1015.23
2017-05-23T05:12:36.347Z,1015.24
2017-05-23T05:13:16.829Z,1015.21
2017-05-23T05:13:57.370Z,1015.2
2017-05-23T05:14:37.860Z,1015.19
2017-05-23T05:15:18.681Z,1015.24
2017-05-23T05:15:59.506Z,1015.2
2017-05-23T05:16:40.361Z,1015.2
2017-05-23T05:17:21.233Z,1015.19
2017-05-23T05:18:02.072Z,1015.21
2017-05-23T05:18:42.934Z,1015.17
2017-05-23T05:19:23.729Z,1015.16
2017-05-23T05:20:04.561Z,1015.17
2017-05-23T05:20:45.389Z,1015.13
2017-05-23T05:21:26.189Z,1015.13
2017-05-23T05:22:06.985Z,1015.13
2017-05-23T05:22:47.681Z,1015.15
2017-05-23T05:23:28.422Z,1015.14
2017-05-23T05:24:09.272Z,1015.19
2017-05-23T05:24:49.998Z,1015.18
2017-05-23T05:25:30.739Z,1015.18
2017-05-23T05:26:11.561Z,1015.17
2017-05-23T05:26:52.337Z,1015.17
2017-05-23T05:27:33.149Z,1015.19
2017-05-23T05:28:13.976Z,1015.19
2017-05-23T05:28:54.780Z,1015.16
2017-05-23T05:29:35.568Z,1015.13
2017-05-23T05:30:16.369Z,1015.14
2017-05-23T05:30:57.165Z,1015.19
2017-05-23T05:31:37.964Z,1015.16
2017-05-23T05:32:18.721Z,1015.17
2017-05-23T05:32:59.199Z,1015.13
2017-05-23T05:33:39.685Z,1015.17
2017-05-23T05:34:20.183Z,1015.15
2017-05-23T05:35:00.678Z,1015.18
2017-05-23T05:35:41.171Z,1015.15
2017-05-23T05:36:21.669Z,1015.13
2017-05-23T05:37:02.190Z,1015.16
2017-05-23T05:37:42.709Z,1015.15
2017-05-23T05:38:23.191Z,1015.12
2017-05-23T05:39:03.707Z,1015.09
2017-05-23T05:39:44.189Z,1015.11
2017-05-23T05:40:24.676Z,1015.12
2017-05-23T05:41:05.154Z,1015.11
2017-05-23T05:41:45.667Z,1015.08
2017-05-23T05:42:26.126Z,1015.07
2017-05-23T05:43:06.607Z,1015.05
2017-05-23T05:43:47.151Z,1015.04
2017-05-23T05:44:27.634Z,1015.04
2017-05-23T05:45:08.137Z,1015
2017-05-23T05:45:48.625Z,1015.04
2017-05-23T05:46:29.093Z,1015.01
2017-05-23T05:47:09.577Z,1014.99
2017-05-23T05:47:50.075Z,1015
2017-05-23T05:48:30.580Z,1014.98
2017-05-23T05:49:11.091Z,1015
2017-05-23T05:49:51.636Z,1014.96
2017-05-23T05:50:32.135Z,1014.98
2017-05-23T05:51:12.614Z,1014.95
2017-05-23T05:51:53.109Z,1014.89
2017-05-23T05:52:33.600Z,1014.95
2017-05-23T05:53:14.113Z,1014.91
2017-05-23T05:53:54.585Z,1014.93
2017-05-23T05:54:35.089Z,1014.94
2017-05-23T05:55:15.568Z,1014.9
2017-05-23T05:55:56.092Z,1014.93
2017-05-23T05:56:36.571Z,1014.92
2017-05-23T05:57:17.076Z,1014.89
2017-05-23T05:57:57.686Z,1014.86
2017-05-23T05:58:38.237Z,1014.91
2017-05-23T05:59:18.731Z,1014.89
2017-05-23T05:59:59.228Z,1014.87
2017-05-23T06:00:39.688Z,1014.83
2017-05-23T06:01:20.209Z,1014.88
2017-05-23T06:02:00.746Z,1014.88
2017-05-23T06:02:41.224Z,1014.86
2017-05-23T06:03:21.710Z,1014.91
2017-05-23T06:04:02.682Z,1014.9
2017-05-23T06:04:43.175Z,1014.91
2017-05-23T06:05:23.681Z,1014.92
2017-05-23T06:06:04.188Z,1014.95
2017-05-23T06:06:44.665Z,1014.95
2017-05-23T06:09:03.340Z,1015.01
2017-05-23T06:09:43.831Z,1015.01
2017-05-23T06:10:24.318Z,1014.99
2017-05-23T06:11:04.815Z,1014.96
2017-05-23T06:11:45.420Z,1014.96
2017-05-23T06:12:25.906Z,1014.93
2017-05-23T06:13:06.392Z,1014.94
2017-05-23T06:13:46.871Z,1014.9
2017-05-23T06:14:27.372Z,1014.93
2017-05-23T06:15:07.859Z,1014.89
2017-05-23T06:15:48.371Z,1014.88
2017-05-23T06:16:28.856Z,1014.86
2017-05-23T06:17:09.354Z,1014.86
2017-05-23T06:17:49.846Z,1014.84
2017-05-23T06:18:30.310Z,1014.88
2017-05-23T06:19:10.824Z,1014.84
2017-05-23T06:19:51.306Z,1014.84
2017-05-23T06:20:31.783Z,1014.84
2017-05-23T06:21:12.296Z,1014.86
2017-05-23T06:21:52.807Z,1014.86
2017-05-23T06:22:33.281Z,1014.88
2017-05-23T06:23:13.793Z,1014.84
2017-05-23T06:23:54.340Z,1014.84
2017-05-23T06:24:34.821Z,1014.83
2017-05-23T06:25:15.349Z,1014.86
2017-05-23T06:25:55.841Z,1014.84
2017-05-23T06:26:36.358Z,1014.84
2017-05-23T06:27:16.886Z,1014.84
2017-05-23T06:27:57.491Z,1014.88
2017-05-23T06:28:37.978Z,1014.87
2017-05-23T06:29:18.464Z,1014.84
2017-05-23T06:29:59.269Z,1014.85
2017-05-23T06:30:39.776Z,1014.89
2017-05-23T06:31:20.287Z,1014.85
2017-05-23T06:32:00.780Z,1014.82
2017-05-23T06:34:34.243Z,1014.87
2017-05-23T06:35:14.725Z,1014.82
2017-05-23T06:35:55.284Z,1014.8
2017-05-23T06:36:35.709Z,1014.8
2017-05-23T06:37:16.182Z,1014.81
2017-05-23T06:37:56.647Z,1014.8
2017-05-23T06:38:37.149Z,1014.82
2017-05-23T06:39:17.612Z,1014.79
2017-05-23T06:39:58.151Z,1014.78
2017-05-23T06:40:38.727Z,1014.8
2017-05-23T06:41:19.210Z,1014.82
2017-05-23T06:41:59.719Z,1014.82
2017-05-23T06:42:40.173Z,1014.86
2017-05-23T06:43:20.671Z,1014.84
2017-05-23T06:44:01.187Z,1014.81
2017-05-23T06:44:41.671Z,1014.87
2017-05-23T06:45:22.145Z,1014.84
2017-05-23T06:46:02.638Z,1014.91
2017-05-23T06:46:43.131Z,1014.86
2017-05-23T06:47:23.607Z,1014.85
2017-05-23T06:48:04.342Z,1014.89
2017-05-23T06:48:45.154Z,1014.9
2017-05-23T06:49:25.869Z,1014.89
2017-05-23T06:50:06.580Z,1014.85
2017-05-23T06:50:47.511Z,1014.89
2017-05-23T06:51:28.183Z,1014.91
2017-05-23T06:52:08.973Z,1014.92
2017-05-23T06:52:49.772Z,1014.9
2017-05-23T06:53:30.687Z,1014.93
2017-05-23T06:54:11.397Z,1014.95
2017-05-23T06:54:52.269Z,1014.94
2017-05-23T06:55:33.010Z,1014.93
2017-05-23T06:56:13.808Z,1014.97
2017-05-23T06:56:54.600Z,1014.93
2017-05-23T06:57:35.354Z,1014.95
2017-05-23T06:58:15.824Z,1014.96
2017-05-23T06:58:56.311Z,1014.95
2017-05-23T06:59:36.843Z,1014.95
2017-05-23T07:00:17.458Z,1014.92
2017-05-23T07:00:57.934Z,1014.95
2017-05-23T07:01:38.991Z,1014.96
2017-05-23T07:02:19.431Z,1014.98
2017-05-23T07:03:01.489Z,1014.95
2017-05-23T07:03:41.973Z,1014.94
2017-05-23T07:04:22.667Z,1014.9
2017-05-23T07:05:03.800Z,1014.93
2017-05-23T07:05:44.247Z,1014.9
2017-05-23T07:06:25.232Z,1014.95
2017-05-23T07:07:05.826Z,1014.92
2017-05-23T07:07:46.307Z,1014.95
2017-05-23T07:08:26.798Z,1014.97
2017-05-23T07:09:07.317Z,1014.96
2017-05-23T07:09:47.966Z,1014.96
2017-05-23T07:10:28.450Z,1014.99
2017-05-23T07:11:09.178Z,1014.95
2017-05-23T07:11:49.699Z,1015.02
2017-05-23T07:12:30.178Z,1015.02
2017-05-23T07:13:10.680Z,1015.01
2017-05-23T07:13:51.202Z,1014.97
2017-05-23T07:14:31.659Z,1014.94
2017-05-23T07:15:12.131Z,1014.97
2017-05-23T07:15:52.659Z,1014.95
2017-05-23T07:16:36.576Z,1014.97
2017-05-23T07:17:17.110Z,1014.97
2017-05-23T07:17:57.735Z,1014.97
2017-05-23T07:18:38.364Z,1014.97
2017-05-23T07:19:19.394Z,1014.93
2017-05-23T07:19:59.886Z,1014.94
2017-05-23T07:20:40.410Z,1014.95
2017-05-23T07:21:21.682Z,1014.97
2017-05-23T07:22:02.150Z,1014.97
2017-05-23T07:22:42.697Z,1014.98
2017-05-23T07:23:23.251Z,1014.93
2017-05-23T07:24:03.818Z,1014.96
2017-05-23T07:24:44.297Z,1014.97
2017-05-23T07:25:24.798Z,1014.96
2017-05-23T07:26:05.342Z,1014.93
2017-05-23T07:26:45.986Z,1014.95
2017-05-23T07:27:26.538Z,1014.96
2017-05-23T07:28:07.033Z,1014.96
2017-05-23T07:28:47.721Z,1014.94
2017-05-23T07:29:35.077Z,1014.94
2017-05-23T07:30:15.558Z,1014.94
2017-05-23T07:30:56.036Z,1014.92
2017-05-23T07:31:36.541Z,1014.91
2017-05-23T07:32:17.000Z,1014.93
2017-05-23T07:32:57.499Z,1014.9
2017-05-23T07:33:38.175Z,1014.89
2017-05-23T07:34:18.650Z,1014.87
2017-05-23T07:34:59.113Z,1014.85
2017-05-23T07:35:39.617Z,1014.86
2017-05-23T07:36:20.119Z,1014.87
2017-05-23T07:37:00.625Z,1014.86
2017-05-23T07:37:41.087Z,1014.86
2017-05-23T07:38:21.660Z,1014.84
2017-05-23T07:39:02.121Z,1014.87
2017-05-23T07:39:42.665Z,1014.84
2017-05-23T07:40:23.152Z,1014.84
2017-05-23T07:41:03.638Z,1014.82
2017-05-23T07:41:44.143Z,1014.83
2017-05-23T07:42:26.465Z,1014.82
2017-05-23T07:43:10.259Z,1014.77
2017-05-23T07:43:50.702Z,1014.79
2017-05-23T07:44:31.208Z,1014.76
2017-05-23T07:45:11.737Z,1014.76
2017-05-23T07:45:52.245Z,1014.73
2017-05-23T07:46:32.715Z,1014.75
2017-05-23T07:47:13.220Z,1014.74
2017-05-23T07:47:53.718Z,1014.71
2017-05-23T07:48:34.258Z,1014.72
2017-05-23T07:49:14.812Z,1014.74
2017-05-23T07:49:55.320Z,1014.72
2017-05-23T07:50:35.775Z,1014.71
2017-05-23T07:51:16.299Z,1014.72
2017-05-23T07:51:56.736Z,1014.68
2017-05-23T07:52:37.357Z,1014.68
2017-05-23T07:53:17.827Z,1014.69
2017-05-23T07:53:58.301Z,1014.67
2017-05-23T07:54:38.766Z,1014.7
2017-05-23T07:55:19.255Z,1014.72
2017-05-23T07:55:59.750Z,1014.7
2017-05-23T07:56:40.213Z,1014.7
2017-05-23T07:57:20.722Z,1014.66
2017-05-23T07:58:01.218Z,1014.68
2017-05-23T07:58:41.689Z,1014.67
2017-05-23T07:59:22.171Z,1014.68
2017-05-23T08:00:02.651Z,1014.7
2017-05-23T08:00:43.116Z,1014.69
2017-05-23T08:01:23.625Z,1014.7
2017-05-23T08:02:04.145Z,1014.69
2017-05-23T08:02:44.626Z,1014.71
2017-05-23T08:03:26.850Z,1014.69
2017-05-23T08:04:07.345Z,1014.71
2017-05-23T08:04:47.854Z,1014.68
2017-05-23T08:05:28.338Z,1014.68
2017-05-23T08:06:08.804Z,1014.67
2017-05-23T08:06:49.275Z,1014.68
2017-05-23T08:07:29.898Z,1014.62
2017-05-23T08:08:10.541Z,1014.64
2017-05-23T08:08:51.026Z,1014.6
2017-05-23T08:09:31.470Z,1014.65
2017-05-23T08:10:12.062Z,1014.61
2017-05-23T08:10:52.562Z,1014.63
2017-05-23T08:11:33.051Z,1014.59
2017-05-23T08:12:13.521Z,1014.59
2017-05-23T08:12:54.366Z,1014.61
2017-05-23T08:13:34.856Z,1014.61
2017-05-23T08:14:15.317Z,1014.62
2017-05-23T08:14:55.826Z,1014.65
2017-05-23T08:15:36.283Z,1014.64
2017-05-23T08:16:16.786Z,1014.59
2017-05-23T08:16:57.253Z,1014.63
2017-05-23T08:17:37.731Z,1014.62